首页
METAR-TAF:

METAR-TAF

机场 :

法兰西堡, 馬提尼克

馬丁尼克-亞米-凱薩國際機場

纬度: 14-36N, 经度: 061-00W, 海拔: 5米

当前天气观测

该预报发布于13分钟前的14:30 UTC
风速5节,风向南转南东,在南转西南之间变化
温度 28°C
湿度 74%
气压 1017 hPa
能见度10公里或以上
小雨

METAR: TFFF 251430Z AUTO 15005KT 090V200 9999 -RA FEW019/// SCT024/// BKN037/// ///TCU 28/23 Q1017 TEMPO 3000 SHRA

时间: 10:43 (14:43 UTC)

预报

该预报发布于3小时和43分钟前的11:00 UTC
预报有效从25日的 12点(UTC)到 26日的 12点(UTC)
风速3节,风向多变
能见度10公里或以上
散云层高于1500英尺
多云层高于4300英尺
成为
从 25日的 12点(UTC)到 25日的 14点(UTC)
风速10节,风向
短暂存在
从 25日的 12点(UTC)到 26日的 06点(UTC)
能見度: 3000
多云层高于1800英尺, 塔状积云.
阵雨

TAF: TFFF 251100Z 2512/2612 VRB03KT 9999 SCT015 BKN043 BECMG 2512/2514 10010KT TEMPO 2512/2606 3000 SHRA BKN018TCU

超过4000个机场的气象观测和天气预报(METAR&TAF报告)。

可查询的气象台以黄色和红色小点在地图上表示。

将鼠标移到小点上方,可查看气象台名称。

然后点击查看天气观测和预报。

如需切换地图:点击带黑十字的绿色按钮放大地图;点击带横线的绿色按钮缩小地图;或者点击绿色箭头查看邻近地区的地图。


METAR-TAF: